Time;durP1;ratioP1;P1;durP2;ratioP2;P2;SDS_P1;SDS_P2;PMS_P1;PMS_P2;Temp;Humidity;BMP_temperature;BMP_pressure;BME280_temperature;BME280_humidity;BME280_pressure;Samples;Min_cycle;Max_cycle;Signal;HPM_P1;HPM_P2
2022/01/24 00:02:00;;;;;;;;;;;-2.10;84.20;;;;;;5056497;28;19967;-76
2022/01/24 00:04:27;;;;;;;;;;;-2.10;84.30;;;;;;5041495;28;19920;-79
2022/01/24 00:06:53;;;;;;;;;;;-2.10;84.00;;;;;;5038702;28;19937;-81
2022/01/24 00:09:21;;;;;;;;;;;-2.20;83.60;;;;;;5069623;28;19989;-80
2022/01/24 00:12:03;;;;;;;;;;;-2.20;84.40;;;;;;5043839;28;19921;-78
2022/01/24 00:17:31;;;;;;;;;;;-2.30;86.60;;;;;;5055330;28;20340;-80
2022/01/24 00:28:12;;;;;;;;;;;-2.30;83.60;;;;;;5037507;28;20301;-81
2022/01/24 00:30:39;;;;;;;;;;;-2.20;83.70;;;;;;5049898;28;20356;-81
2022/01/24 00:33:07;;;;;;;;;;;-2.20;82.50;;;;;;5055773;28;19924;-76
2022/01/24 00:35:33;;;;;;;;;;;-2.20;82.70;;;;;;5053550;28;20415;-76
2022/01/24 00:38:02;;;;;;;;;;;-2.20;82.70;;;;;;5054122;28;19971;-78
2022/01/24 00:40:33;;;;;;;;;;;-2.20;83.20;;;;;;5045661;28;19932;-81
2022/01/24 00:43:01;;;;;;;;;;;-2.20;83.70;;;;;;5055275;28;19970;-77
2022/01/24 00:53:18;;;;;;;;;;;-2.10;85.40;;;;;;5075933;28;19970;-78
2022/01/24 00:55:47;;;;;;;;;;;-2.00;85.10;;;;;;5075656;28;19924;-78
2022/01/24 00:58:14;;;;;;;;;;;-2.00;84.80;;;;;;5025349;28;20328;-76
2022/01/24 01:00:41;;;;;;;;;;;-2.00;85.50;;;;;;5036352;28;20443;-76
2022/01/24 01:03:08;;;;;;;;;;;-2.00;84.80;;;;;;5037053;28;20344;-78
2022/01/24 01:08:13;;;;;;;;;;;-2.30;84.30;;;;;;5042149;28;20305;-76
2022/01/24 01:18:57;;;;;;;;;;;-2.40;83.60;;;;;;5062098;28;19994;-78
2022/01/24 01:21:24;;;;;;;;;;;-2.40;83.20;;;;;;5043636;28;20330;-78
2022/01/24 01:23:54;;;;;;;;;;;-2.50;83.50;;;;;;5051423;28;20434;-77
2022/01/24 01:28:57;;;;;;;;;;;-2.50;84.70;;;;;;5070550;28;19975;-78
2022/01/24 01:31:40;;;;;;;;;;;-2.50;85.70;;;;;;5065272;28;19936;-76
2022/01/24 01:56:14;;;;;;;;;;;-2.60;84.80;;;;;;5003452;28;20297;-80
2022/01/24 01:58:41;;;;;;;;;;;-2.70;84.50;;;;;;5046466;28;20381;-78
2022/01/24 02:01:08;;;;;;;;;;;-2.70;84.40;;;;;;5054663;28;20034;-78
2022/01/24 02:03:36;;;;;;;;;;;-2.70;85.50;;;;;;5042645;28;19940;-81
2022/01/24 02:06:02;;;;;;;;;;;-2.80;86.30;;;;;;5049548;28;19928;-78
2022/01/24 02:08:31;;;;;;;;;;;-2.80;86.50;;;;;;5073675;28;19924;-79
2022/01/24 02:10:59;;;;;;;;;;;-2.80;85.50;;;;;;5068151;28;19978;-79
2022/01/24 02:13:27;;;;;;;;;;;-2.80;87.00;;;;;;5052463;28;19994;-78
2022/01/24 02:16:11;;;;;;;;;;;-2.80;88.50;;;;;;5052710;28;19974;-76
2022/01/24 02:22:05;;;;;;;;;;;-2.80;87.30;;;;;;5046674;28;19928;-78
2022/01/24 02:24:41;;;;;;;;;;;-2.90;86.40;;;;;;5056361;28;19925;-76
2022/01/24 02:27:09;;;;;;;;;;;-2.90;87.00;;;;;;5057647;28;19979;-78
2022/01/24 02:29:51;;;;;;;;;;;-2.80;88.90;;;;;;5055808;28;19929;-81
2022/01/24 02:32:18;;;;;;;;;;;-2.80;89.60;;;;;;5055263;28;19928;-78
2022/01/24 02:34:48;;;;;;;;;;;-2.80;88.80;;;;;;5070375;28;20273;-78
2022/01/24 02:37:17;;;;;;;;;;;-2.80;88.70;;;;;;5037701;28;19925;-77
2022/01/24 02:50:33;;;;;;;;;;;-2.60;90.00;;;;;;5037287;28;19929;-81
2022/01/24 02:53:00;;;;;;;;;;;-2.60;89.00;;;;;;5067255;28;19935;-75
2022/01/24 02:55:27;;;;;;;;;;;-2.70;88.90;;;;;;5038010;28;20384;-76
2022/01/24 02:57:53;;;;;;;;;;;-2.70;89.60;;;;;;5064260;28;19933;-78
2022/01/24 03:00:20;;;;;;;;;;;-2.60;88.80;;;;;;5067429;28;19928;-77
2022/01/24 03:02:47;;;;;;;;;;;-2.70;88.90;;;;;;5065333;28;19970;-78
2022/01/24 03:05:14;;;;;;;;;;;-2.70;88.10;;;;;;5061430;28;20400;-76
2022/01/24 03:07:41;;;;;;;;;;;-2.70;87.70;;;;;;5050038;28;20347;-80
2022/01/24 03:10:24;;;;;;;;;;;-2.80;87.50;;;;;;5055300;28;19932;-78
2022/01/24 03:15:37;;;;;;;;;;;-3.00;88.50;;;;;;5033180;28;20320;-78
2022/01/24 03:18:04;;;;;;;;;;;-3.00;87.80;;;;;;5062033;28;19951;-79
2022/01/24 03:20:32;;;;;;;;;;;-3.00;87.00;;;;;;5072360;28;19935;-81
2022/01/24 03:22:59;;;;;;;;;;;-3.00;86.70;;;;;;5055199;28;19983;-80
2022/01/24 03:25:28;;;;;;;;;;;-3.10;86.30;;;;;;5054737;28;19928;-79
2022/01/24 03:27:55;;;;;;;;;;;-3.10;85.80;;;;;;5025783;28;19974;-75
2022/01/24 03:30:23;;;;;;;;;;;-3.10;85.40;;;;;;5029424;28;19952;-79
2022/01/24 03:32:51;;;;;;;;;;;-3.10;87.10;;;;;;5036274;28;20389;-78
2022/01/24 03:35:18;;;;;;;;;;;-3.20;87.00;;;;;;5037826;28;20024;-80
2022/01/24 03:37:44;;;;;;;;;;;-3.20;87.70;;;;;;5059751;28;19928;-76
2022/01/24 03:40:11;;;;;;;;;;;-3.20;86.50;;;;;;5036717;28;19931;-80
2022/01/24 03:42:38;;;;;;;;;;;-3.30;86.30;;;;;;5032907;28;19936;-79
2022/01/24 03:45:08;;;;;;;;;;;-3.30;86.40;;;;;;5026523;28;19936;-76
2022/01/24 03:50:15;;;;;;;;;;;-3.30;86.10;;;;;;5070074;28;19982;-75
2022/01/24 03:52:42;;;;;;;;;;;-3.30;85.30;;;;;;5068215;28;19925;-76
2022/01/24 03:55:09;;;;;;;;;;;-3.30;85.10;;;;;;5049975;28;19929;-78
2022/01/24 03:57:36;;;;;;;;;;;-3.30;85.60;;;;;;5032759;28;19929;-81
2022/01/24 04:00:04;;;;;;;;;;;-3.40;85.60;;;;;;5042155;28;19928;-78
2022/01/24 04:02:31;;;;;;;;;;;-3.40;84.60;;;;;;5053888;28;19928;-81
2022/01/24 04:04:58;;;;;;;;;;;-3.40;85.00;;;;;;5071417;28;19924;-75
2022/01/24 04:07:25;;;;;;;;;;;-3.40;84.30;;;;;;5068532;28;19974;-77
2022/01/24 04:09:52;;;;;;;;;;;-3.40;85.40;;;;;;5071566;28;19925;-76
2022/01/24 04:12:23;;;;;;;;;;;-3.40;85.00;;;;;;5033395;28;19925;-81
2022/01/24 04:15:12;;;;;;;;;;;-3.50;84.70;;;;;;5030107;28;19999;-78
2022/01/24 04:17:45;;;;;;;;;;;-3.50;85.10;;;;;;5054379;28;19928;-76
2022/01/24 04:23:00;;;;;;;;;;;-3.50;86.00;;;;;;5057257;28;20285;-76
2022/01/24 04:25:27;;;;;;;;;;;-3.50;85.40;;;;;;5072172;28;19935;-80
2022/01/24 04:27:54;;;;;;;;;;;-3.50;85.40;;;;;;5056101;28;19935;-76
2022/01/24 04:30:26;;;;;;;;;;;-3.50;85.50;;;;;;5067024;28;20290;-76
2022/01/24 04:32:52;;;;;;;;;;;-3.50;84.70;;;;;;5041379;28;19929;-80
2022/01/24 04:35:19;;;;;;;;;;;-3.50;84.80;;;;;;5040259;28;19925;-81
2022/01/24 04:37:46;;;;;;;;;;;-3.60;85.20;;;;;;5043541;28;20320;-77
2022/01/24 04:40:13;;;;;;;;;;;-3.60;86.50;;;;;;5064561;28;19929;-76
2022/01/24 04:42:47;;;;;;;;;;;-3.60;87.20;;;;;;5024738;28;20435;-81
2022/01/24 04:51:13;;;;;;;;;;;-3.60;85.50;;;;;;5029767;28;19990;-81
2022/01/24 04:56:06;;;;;;;;;;;-3.60;86.80;;;;;;5072040;28;19925;-78
2022/01/24 04:58:33;;;;;;;;;;;-3.60;86.10;;;;;;5054589;28;19929;-81
2022/01/24 05:01:00;;;;;;;;;;;-3.60;87.20;;;;;;5054324;28;19990;-76
2022/01/24 05:03:27;;;;;;;;;;;-3.60;87.90;;;;;;5053999;28;19924;-78
2022/01/24 05:05:54;;;;;;;;;;;-3.60;86.60;;;;;;5055838;28;19928;-76
2022/01/24 05:08:20;;;;;;;;;;;-3.60;86.30;;;;;;5054264;28;19928;-81
2022/01/24 05:11:08;;;;;;;;;;;-3.70;86.00;;;;;;5051881;28;19929;-81
2022/01/24 05:24:18;;;;;;;;;;;-3.70;87.00;;;;;;5074727;28;20015;-76
2022/01/24 05:26:45;;;;;;;;;;;-3.80;86.30;;;;;;5055452;28;19925;-81
2022/01/24 05:29:12;;;;;;;;;;;-3.80;86.30;;;;;;5068152;28;19924;-79
2022/01/24 05:31:39;;;;;;;;;;;-3.80;86.60;;;;;;5044563;28;20270;-76
2022/01/24 05:34:05;;;;;;;;;;;-3.80;86.60;;;;;;5042591;28;19979;-76
2022/01/24 05:36:32;;;;;;;;;;;-3.80;86.50;;;;;;5046953;28;19925;-77
2022/01/24 05:39:00;;;;;;;;;;;-3.80;86.40;;;;;;5044986;28;19977;-79
2022/01/24 05:41:27;;;;;;;;;;;-3.90;85.70;;;;;;5064125;28;19932;-81
2022/01/24 05:43:54;;;;;;;;;;;-3.90;85.00;;;;;;5070957;28;20489;-76
2022/01/24 05:46:21;;;;;;;;;;;-3.90;85.00;;;;;;5065551;28;19924;-76
2022/01/24 05:48:48;;;;;;;;;;;-3.90;85.60;;;;;;5073895;28;19924;-81
2022/01/24 05:51:15;;;;;;;;;;;-3.90;85.00;;;;;;5047316;28;19929;-77
2022/01/24 05:53:42;;;;;;;;;;;-4.00;85.50;;;;;;5046271;28;20389;-78
2022/01/24 05:56:09;;;;;;;;;;;-4.00;84.90;;;;;;5072684;28;20293;-76
2022/01/24 05:58:36;;;;;;;;;;;-4.00;85.50;;;;;;5073130;28;19928;-74
2022/01/24 06:01:02;;;;;;;;;;;-4.00;86.60;;;;;;5069509;28;19973;-80
2022/01/24 06:03:30;;;;;;;;;;;-4.00;85.90;;;;;;5042251;28;19932;-75
2022/01/24 06:05:57;;;;;;;;;;;-4.00;85.60;;;;;;5051706;28;19948;-76
2022/01/24 06:08:23;;;;;;;;;;;-4.00;85.50;;;;;;5036036;28;19925;-79
2022/01/24 06:10:50;;;;;;;;;;;-4.10;84.90;;;;;;5051022;28;20008;-79
2022/01/24 06:13:17;;;;;;;;;;;-4.10;84.50;;;;;;5050326;28;20300;-79
2022/01/24 06:15:44;;;;;;;;;;;-4.10;85.50;;;;;;5032837;28;19929;-77
2022/01/24 06:18:11;;;;;;;;;;;-4.10;84.60;;;;;;5039341;28;20435;-76
2022/01/24 06:20:42;;;;;;;;;;;-4.10;85.50;;;;;;5045977;28;19929;-79
2022/01/24 06:23:11;;;;;;;;;;;-4.10;85.60;;;;;;5041600;28;19932;-76
2022/01/24 06:25:38;;;;;;;;;;;-4.10;86.20;;;;;;5033781;28;19929;-77
2022/01/24 06:28:08;;;;;;;;;;;-4.10;86.10;;;;;;5042498;28;19963;-78
2022/01/24 06:30:35;;;;;;;;;;;-4.20;85.80;;;;;;5043704;28;19925;-78
2022/01/24 06:33:02;;;;;;;;;;;-4.20;85.70;;;;;;5039688;28;19944;-80
2022/01/24 06:35:29;;;;;;;;;;;-4.20;85.40;;;;;;5042316;28;19932;-76
2022/01/24 06:37:56;;;;;;;;;;;-4.20;85.70;;;;;;5041726;28;20313;-77
2022/01/24 06:40:22;;;;;;;;;;;-4.20;85.40;;;;;;5038609;28;19925;-78
2022/01/24 06:42:49;;;;;;;;;;;-4.20;86.50;;;;;;5053865;28;20377;-79
2022/01/24 06:45:16;;;;;;;;;;;-4.20;85.60;;;;;;5066792;28;19932;-76
2022/01/24 06:47:44;;;;;;;;;;;-4.20;85.80;;;;;;5038391;28;19991;-76
2022/01/24 06:50:11;;;;;;;;;;;-4.20;85.50;;;;;;5052779;28;19929;-76
2022/01/24 06:52:38;;;;;;;;;;;-4.30;85.50;;;;;;5060778;28;20450;-79
2022/01/24 06:55:05;;;;;;;;;;;-4.30;86.30;;;;;;5067755;28;19932;-77
2022/01/24 06:57:32;;;;;;;;;;;-4.30;86.40;;;;;;5054965;28;19947;-79
2022/01/24 06:59:58;;;;;;;;;;;-4.30;85.60;;;;;;5052145;28;19929;-76
2022/01/24 07:02:25;;;;;;;;;;;-4.30;85.20;;;;;;5051091;28;19932;-79
2022/01/24 07:04:52;;;;;;;;;;;-4.40;85.60;;;;;;5061696;28;19925;-79
2022/01/24 07:07:19;;;;;;;;;;;-4.40;86.00;;;;;;5034286;28;19925;-78
2022/01/24 07:09:46;;;;;;;;;;;-4.30;85.80;;;;;;5052275;28;19955;-78
2022/01/24 07:12:12;;;;;;;;;;;-4.40;85.90;;;;;;5072217;28;19960;-76
2022/01/24 07:14:41;;;;;;;;;;;-4.30;86.00;;;;;;5055488;28;19924;-76
2022/01/24 07:17:29;;;;;;;;;;;-4.30;85.50;;;;;;5046802;28;20385;-79
2022/01/24 07:19:56;;;;;;;;;;;-4.30;84.90;;;;;;5048631;28;19929;-77
2022/01/24 07:22:23;;;;;;;;;;;-4.30;86.40;;;;;;5053669;28;19955;-77
2022/01/24 07:24:50;;;;;;;;;;;-4.30;86.90;;;;;;5044688;28;19925;-76
2022/01/24 07:27:16;;;;;;;;;;;-4.30;86.20;;;;;;5056632;28;19925;-79
2022/01/24 07:29:43;;;;;;;;;;;-4.30;86.30;;;;;;5063887;28;20308;-75
2022/01/24 07:32:13;;;;;;;;;;;-4.20;86.40;;;;;;5070347;28;20333;-80
2022/01/24 07:34:40;;;;;;;;;;;-4.20;88.10;;;;;;5058455;28;19980;-76
2022/01/24 07:37:06;;;;;;;;;;;-4.20;89.10;;;;;;5044407;28;19925;-78
2022/01/24 07:39:33;;;;;;;;;;;-4.20;88.60;;;;;;5032369;28;19975;-76
2022/01/24 07:42:15;;;;;;;;;;;-4.10;87.00;;;;;;5042139;28;19929;-75
2022/01/24 07:44:42;;;;;;;;;;;-4.10;87.80;;;;;;5033717;28;19931;-78
2022/01/24 07:47:09;;;;;;;;;;;-4.00;87.90;;;;;;5052068;28;19933;-76
2022/01/24 07:49:36;;;;;;;;;;;-4.00;88.60;;;;;;5051113;28;19932;-79
2022/01/24 07:52:03;;;;;;;;;;;-3.90;88.70;;;;;;5041489;28;20457;-78
2022/01/24 07:54:30;;;;;;;;;;;-3.80;89.00;;;;;;5033573;28;19929;-78
2022/01/24 07:56:57;;;;;;;;;;;-3.60;89.90;;;;;;5056452;28;20430;-78
2022/01/24 07:59:24;;;;;;;;;;;-3.40;89.10;;;;;;5043219;28;19932;-77
2022/01/24 08:01:51;;;;;;;;;;;-3.10;88.40;;;;;;5053254;28;20445;-76
2022/01/24 08:04:17;;;;;;;;;;;-2.90;87.40;;;;;;5067783;28;19932;-78
2022/01/24 08:06:46;;;;;;;;;;;-2.70;87.70;;;;;;5035360;28;19929;-77
2022/01/24 08:09:13;;;;;;;;;;;-2.40;88.00;;;;;;5053312;28;19928;-76
2022/01/24 08:11:40;;;;;;;;;;;-2.20;87.20;;;;;;5047101;28;19937;-76
2022/01/24 08:14:08;;;;;;;;;;;-2.00;86.90;;;;;;5064602;28;19925;-76
2022/01/24 08:16:37;;;;;;;;;;;-1.80;86.40;;;;;;5065003;28;19940;-76
2022/01/24 08:19:04;;;;;;;;;;;-1.60;85.90;;;;;;5025695;28;19935;-79
2022/01/24 08:21:30;;;;;;;;;;;-1.40;85.20;;;;;;5028324;28;20340;-78
2022/01/24 08:23:57;;;;;;;;;;;-1.20;84.40;;;;;;5030024;28;19929;-76
2022/01/24 08:26:24;;;;;;;;;;;-0.90;84.30;;;;;;5023580;28;19925;-76
2022/01/24 08:28:51;;;;;;;;;;;-0.80;83.70;;;;;;5026267;28;19930;-78
2022/01/24 08:31:18;;;;;;;;;;;-0.60;83.90;;;;;;5027698;28;19980;-78
2022/01/24 08:33:45;;;;;;;;;;;-0.40;83.70;;;;;;5012781;28;20386;-79
2022/01/24 08:36:12;;;;;;;;;;;-0.20;83.20;;;;;;5015371;28;20370;-76
2022/01/24 08:38:39;;;;;;;;;;;0.10;82.30;;;;;;5031258;28;19933;-77
2022/01/24 08:41:18;;;;;;;;;;;0.30;81.70;;;;;;5039952;28;19929;-77
2022/01/24 08:46:15;;;;;;;;;;;0.70;80.80;;;;;;5023831;28;19925;-77
2022/01/24 08:48:43;;;;;;;;;;;0.80;80.80;;;;;;5020811;28;19979;-77
2022/01/24 08:51:12;;;;;;;;;;;1.00;80.60;;;;;;5027217;28;20019;-78
2022/01/24 08:53:59;;;;;;;;;;;1.00;80.60;;;;;;5013342;28;20278;-76
2022/01/24 08:56:28;;;;;;;;;;;1.20;80.60;;;;;;5023194;28;19933;-77
2022/01/24 08:58:54;;;;;;;;;;;1.30;79.90;;;;;;5033773;28;19932;-77
2022/01/24 09:01:22;;;;;;;;;;;1.20;79.60;;;;;;5033324;28;20407;-76
2022/01/24 09:03:49;;;;;;;;;;;1.30;80.10;;;;;;5034049;28;20416;-79
2022/01/24 09:06:18;;;;;;;;;;;1.50;80.30;;;;;;5016856;28;19930;-77
2022/01/24 09:08:45;;;;;;;;;;;1.60;80.00;;;;;;5033176;28;20409;-76
2022/01/24 09:11:12;;;;;;;;;;;1.80;79.90;;;;;;5049155;28;20417;-78
2022/01/24 09:13:38;;;;;;;;;;;1.90;79.90;;;;;;5033678;28;19975;-79
2022/01/24 09:16:05;;;;;;;;;;;2.00;79.30;;;;;;5033420;28;20301;-76
2022/01/24 09:18:32;;;;;;;;;;;2.20;79.20;;;;;;5019524;28;19925;-79
2022/01/24 09:20:59;;;;;;;;;;;2.30;79.10;;;;;;5032241;28;19925;-77
2022/01/24 09:23:26;;;;;;;;;;;2.40;79.20;;;;;;5031797;28;19936;-76
2022/01/24 09:25:53;;;;;;;;;;;2.40;78.90;;;;;;5031864;28;19933;-77
2022/01/24 09:28:20;;;;;;;;;;;2.60;78.90;;;;;;5034181;28;20389;-76
2022/01/24 09:30:47;;;;;;;;;;;2.70;79.40;;;;;;5032870;28;19929;-78
2022/01/24 09:33:14;;;;;;;;;;;2.80;78.80;;;;;;5034553;28;19976;-77
2022/01/24 09:35:41;;;;;;;;;;;2.90;78.60;;;;;;5032918;28;19929;-76
2022/01/24 09:38:08;;;;;;;;;;;3.00;78.20;;;;;;5028820;28;19932;-78
2022/01/24 09:40:35;;;;;;;;;;;3.10;79.10;;;;;;5030752;28;19955;-79
2022/01/24 09:43:02;;;;;;;;;;;3.10;78.40;;;;;;5031300;28;19929;-76
2022/01/24 09:45:29;;;;;;;;;;;3.20;78.30;;;;;;5048615;28;20341;-76
2022/01/24 09:47:57;;;;;;;;;;;3.10;78.30;;;;;;5024028;28;19933;-76
2022/01/24 09:50:24;;;;;;;;;;;3.20;78.50;;;;;;5042878;28;20016;-77
2022/01/24 09:52:51;;;;;;;;;;;3.30;78.80;;;;;;5035813;28;19929;-77
2022/01/24 09:55:19;;;;;;;;;;;3.50;78.00;;;;;;5018861;28;19929;-77
2022/01/24 09:57:47;;;;;;;;;;;3.60;77.10;;;;;;5033867;28;19928;-77
2022/01/24 10:00:16;;;;;;;;;;;3.70;76.70;;;;;;5020522;28;19932;-78
2022/01/24 10:02:43;;;;;;;;;;;3.60;76.20;;;;;;5032371;28;19932;-78
2022/01/24 10:05:12;;;;;;;;;;;3.70;76.20;;;;;;5032977;28;19929;-77
2022/01/24 10:07:39;;;;;;;;;;;3.90;76.30;;;;;;5032757;28;19954;-77
2022/01/24 10:10:06;;;;;;;;;;;4.10;75.60;;;;;;5021732;28;19925;-77
2022/01/24 10:17:54;;;;;;;;;;;4.50;73.20;;;;;;5030168;28;20032;-78
2022/01/24 10:20:24;;;;;;;;;;;4.70;72.50;;;;;;5027908;28;19928;-78
2022/01/24 10:22:59;;;;;;;;;;;4.70;71.50;;;;;;5052962;28;20003;-79
2022/01/24 10:25:26;;;;;;;;;;;4.90;71.60;;;;;;5052628;28;20465;-78
2022/01/24 10:27:59;;;;;;;;;;;5.00;71.50;;;;;;5036913;28;20393;-77
2022/01/24 10:30:26;;;;;;;;;;;5.20;71.10;;;;;;5043298;28;19925;-80
2022/01/24 10:32:55;;;;;;;;;;;5.30;70.20;;;;;;5033331;28;19925;-79
2022/01/24 10:35:43;;;;;;;;;;;5.40;69.60;;;;;;5049956;28;19936;-77
2022/01/24 10:38:23;;;;;;;;;;;5.50;68.50;;;;;;5051365;28;19958;-76
2022/01/24 10:40:54;;;;;;;;;;;5.60;67.60;;;;;;5052155;28;20301;-78
2022/01/24 10:43:26;;;;;;;;;;;5.70;66.70;;;;;;5050780;28;19931;-80
2022/01/24 10:45:55;;;;;;;;;;;5.80;66.00;;;;;;5052790;28;19970;-77
2022/01/24 10:48:23;;;;;;;;;;;5.80;65.50;;;;;;5052114;28;20393;-77
2022/01/24 10:51:10;;;;;;;;;;;5.90;64.30;;;;;;5040443;28;19924;-79
2022/01/24 10:53:43;;;;;;;;;;;6.00;64.30;;;;;;5015700;28;19960;-79
2022/01/24 10:56:28;;;;;;;;;;;6.10;63.20;;;;;;5037669;28;19975;-78
2022/01/24 10:58:59;;;;;;;;;;;6.10;63.80;;;;;;5050591;28;19925;-79
2022/01/24 11:01:32;;;;;;;;;;;6.20;63.90;;;;;;5046252;28;19928;-77
2022/01/24 11:04:01;;;;;;;;;;;6.20;63.10;;;;;;5067606;28;19924;-77
2022/01/24 11:06:29;;;;;;;;;;;6.30;62.70;;;;;;5067435;28;19925;-77
2022/01/24 11:09:11;;;;;;;;;;;6.40;63.20;;;;;;5050803;28;19990;-79
2022/01/24 11:11:38;;;;;;;;;;;6.60;62.20;;;;;;5050755;28;19925;-76
2022/01/24 11:14:06;;;;;;;;;;;6.70;61.70;;;;;;5042515;28;19932;-77
2022/01/24 11:16:33;;;;;;;;;;;6.80;60.50;;;;;;5050974;28;20003;-77
2022/01/24 11:19:02;;;;;;;;;;;6.90;61.20;;;;;;5047189;28;20004;-77
2022/01/24 11:21:33;;;;;;;;;;;7.00;60.70;;;;;;5047729;28;20296;-78
2022/01/24 11:24:04;;;;;;;;;;;7.00;60.10;;;;;;5038694;28;19925;-78
2022/01/24 11:26:31;;;;;;;;;;;7.10;60.60;;;;;;5037552;28;19928;-77
2022/01/24 11:28:58;;;;;;;;;;;7.20;60.00;;;;;;5063686;28;19937;-78
2022/01/24 11:31:27;;;;;;;;;;;7.30;59.40;;;;;;5039399;28;19983;-77
2022/01/24 11:33:59;;;;;;;;;;;7.30;59.50;;;;;;5039392;28;19932;-77
2022/01/24 11:36:46;;;;;;;;;;;7.40;59.60;;;;;;5050967;28;19961;-77
2022/01/24 11:39:20;;;;;;;;;;;7.50;59.60;;;;;;5071440;28;19942;-77
2022/01/24 11:41:47;;;;;;;;;;;7.60;59.50;;;;;;5034610;28;19929;-77
2022/01/24 11:44:17;;;;;;;;;;;7.80;59.20;;;;;;5053979;28;19924;-79
2022/01/24 11:47:07;;;;;;;;;;;7.80;58.70;;;;;;5042452;28;20392;-80
2022/01/24 11:49:38;;;;;;;;;;;8.00;58.60;;;;;;5052927;28;19998;-78
2022/01/24 11:52:07;;;;;;;;;;;8.10;58.60;;;;;;5018617;28;19999;-80
2022/01/24 11:57:15;;;;;;;;;;;8.20;56.80;;;;;;5050394;28;19928;-78
2022/01/24 11:59:42;;;;;;;;;;;8.30;56.60;;;;;;5038498;28;19929;-80
2022/01/24 12:02:15;;;;;;;;;;;8.30;56.90;;;;;;5042815;28;20458;-77
2022/01/24 12:04:49;;;;;;;;;;;8.40;56.50;;;;;;5068986;28;19924;-77
2022/01/24 12:07:17;;;;;;;;;;;8.50;56.00;;;;;;5052945;28;20339;-78
2022/01/24 12:09:44;;;;;;;;;;;8.50;55.40;;;;;;5058097;28;19924;-79
2022/01/24 12:12:37;;;;;;;;;;;8.50;55.80;;;;;;5057693;28;19929;-77
2022/01/24 12:15:07;;;;;;;;;;;8.60;55.60;;;;;;5045549;28;20470;-77
2022/01/24 12:17:48;;;;;;;;;;;8.60;55.20;;;;;;5034295;28;19926;-77
2022/01/24 12:20:29;;;;;;;;;;;8.80;55.30;;;;;;5048531;28;19925;-76
2022/01/24 12:23:21;;;;;;;;;;;9.00;55.20;;;;;;5051071;28;19925;-79
2022/01/24 12:26:12;;;;;;;;;;;9.00;54.10;;;;;;5044199;28;19926;-79
2022/01/24 12:28:43;;;;;;;;;;;9.10;54.00;;;;;;5054031;28;19933;-76
2022/01/24 12:31:21;;;;;;;;;;;9.10;53.40;;;;;;5047166;28;19924;-77
2022/01/24 12:33:57;;;;;;;;;;;9.10;53.90;;;;;;5042672;28;19932;-81
2022/01/24 12:36:49;;;;;;;;;;;9.30;53.70;;;;;;5034244;28;19932;-77
2022/01/24 12:39:17;;;;;;;;;;;9.30;52.70;;;;;;5068154;28;20327;-78
2022/01/24 12:41:48;;;;;;;;;;;9.40;52.60;;;;;;5070891;28;19929;-78
2022/01/24 12:47:03;;;;;;;;;;;9.50;51.60;;;;;;5046502;28;19925;-81
2022/01/24 12:49:30;;;;;;;;;;;9.40;51.70;;;;;;5046668;28;20741;-80
2022/01/24 12:52:02;;;;;;;;;;;9.50;51.30;;;;;;5067156;28;19948;-78
2022/01/24 12:54:33;;;;;;;;;;;9.50;51.30;;;;;;5053553;28;19924;-81
2022/01/24 12:57:01;;;;;;;;;;;9.60;50.60;;;;;;5029359;28;19959;-79
2022/01/24 12:59:28;;;;;;;;;;;9.70;51.30;;;;;;5033142;28;19975;-78
2022/01/24 13:01:56;;;;;;;;;;;9.80;51.00;;;;;;5063349;28;19924;-81
2022/01/24 13:04:37;;;;;;;;;;;9.80;51.20;;;;;;5032054;28;20376;-78
2022/01/24 13:07:05;;;;;;;;;;;9.90;51.40;;;;;;5035232;28;19929;-78
2022/01/24 13:09:33;;;;;;;;;;;9.80;51.80;;;;;;5042312;28;20735;-81
2022/01/24 13:12:03;;;;;;;;;;;9.70;52.30;;;;;;5045126;28;20401;-81
2022/01/24 13:15:22;;;;;;;;;;;9.70;52.50;;;;;;5038560;28;20420;-81
2022/01/24 13:23:08;;;;;;;;;;;9.90;52.20;;;;;;5059717;28;19936;-79
2022/01/24 13:25:37;;;;;;;;;;;9.90;52.70;;;;;;5034621;28;20015;-78
2022/01/24 13:28:12;;;;;;;;;;;10.00;52.80;;;;;;5031448;28;19925;-78
2022/01/24 13:30:41;;;;;;;;;;;10.00;51.10;;;;;;5033811;28;19939;-81
2022/01/24 13:33:12;;;;;;;;;;;10.10;51.90;;;;;;5062945;28;19935;-78
2022/01/24 13:35:41;;;;;;;;;;;10.10;51.50;;;;;;5061471;28;19928;-78
2022/01/24 13:38:17;;;;;;;;;;;10.20;51.20;;;;;;5044988;28;19929;-79
2022/01/24 13:41:05;;;;;;;;;;;10.20;50.90;;;;;;5072288;28;19925;-77
2022/01/24 13:43:34;;;;;;;;;;;10.20;51.30;;;;;;5057266;28;20392;-81
2022/01/24 13:46:02;;;;;;;;;;;10.20;51.80;;;;;;5044386;28;20008;-78
2022/01/24 13:48:36;;;;;;;;;;;10.30;52.30;;;;;;5050851;28;19925;-78
2022/01/24 13:51:03;;;;;;;;;;;10.30;51.60;;;;;;5039145;28;19925;-78
2022/01/24 13:53:34;;;;;;;;;;;10.30;51.00;;;;;;5047840;28;19989;-77
2022/01/24 13:56:14;;;;;;;;;;;10.20;51.80;;;;;;5052248;28;19975;-76
2022/01/24 13:58:41;;;;;;;;;;;10.10;51.80;;;;;;5054295;28;19929;-78
2022/01/24 14:01:13;;;;;;;;;;;10.10;52.30;;;;;;5074259;28;19935;-78
2022/01/24 14:03:40;;;;;;;;;;;10.10;52.70;;;;;;5055360;28;22674;-78
2022/01/24 14:06:17;;;;;;;;;;;10.10;52.80;;;;;;5068998;28;20448;-81
2022/01/24 14:08:44;;;;;;;;;;;10.10;52.50;;;;;;5016485;28;19925;-81
2022/01/24 14:11:14;;;;;;;;;;;9.90;52.10;;;;;;5049830;28;19931;-81
2022/01/24 14:13:48;;;;;;;;;;;9.90;52.60;;;;;;5030931;28;19929;-79
2022/01/24 14:16:44;;;;;;;;;;;9.90;52.50;;;;;;5029761;28;19924;-78
2022/01/24 14:19:10;;;;;;;;;;;9.90;52.50;;;;;;5042899;28;19929;-78
2022/01/24 14:22:01;;;;;;;;;;;9.90;52.00;;;;;;5040599;28;19932;-78
2022/01/24 14:24:44;;;;;;;;;;;9.80;51.80;;;;;;5038879;28;20420;-77
2022/01/24 14:27:11;;;;;;;;;;;9.60;52.40;;;;;;5025958;28;19951;-77
2022/01/24 14:29:39;;;;;;;;;;;9.60;53.60;;;;;;5057810;28;20342;-77
2022/01/24 14:32:12;;;;;;;;;;;9.50;52.90;;;;;;5045094;28;19935;-78
2022/01/24 14:34:42;;;;;;;;;;;9.50;53.50;;;;;;5030620;28;19991;-77
2022/01/24 14:37:08;;;;;;;;;;;9.50;53.80;;;;;;5028120;28;19925;-77
2022/01/24 14:39:46;;;;;;;;;;;9.40;53.80;;;;;;5056728;28;19996;-77
2022/01/24 14:42:30;;;;;;;;;;;9.40;54.20;;;;;;5025481;28;20297;-82
2022/01/24 14:44:57;;;;;;;;;;;9.40;54.20;;;;;;5039872;28;19928;-77
2022/01/24 14:47:24;;;;;;;;;;;9.40;54.70;;;;;;5035121;28;19936;-79
2022/01/24 14:49:52;;;;;;;;;;;9.40;55.20;;;;;;5036951;28;20407;-79
2022/01/24 14:52:22;;;;;;;;;;;9.30;54.80;;;;;;5041317;28;19940;-78
2022/01/24 14:54:49;;;;;;;;;;;9.20;55.30;;;;;;5058605;28;20377;-78
2022/01/24 14:57:16;;;;;;;;;;;9.20;55.60;;;;;;5031660;28;20381;-77
2022/01/24 14:59:46;;;;;;;;;;;9.10;55.30;;;;;;5027497;28;19929;-79
2022/01/24 15:02:13;;;;;;;;;;;9.00;54.80;;;;;;5048252;28;19932;-82
2022/01/24 15:04:40;;;;;;;;;;;9.00;55.70;;;;;;5041061;28;19956;-80
2022/01/24 15:07:07;;;;;;;;;;;9.00;56.00;;;;;;5056669;28;19931;-79
2022/01/24 15:09:34;;;;;;;;;;;8.90;56.60;;;;;;5034835;28;19925;-78
2022/01/24 15:12:04;;;;;;;;;;;8.90;56.50;;;;;;5032368;28;19933;-76
2022/01/24 15:14:38;;;;;;;;;;;8.70;57.00;;;;;;5023782;28;19925;-78
2022/01/24 15:17:25;;;;;;;;;;;8.70;58.10;;;;;;5072054;28;19977;-78
2022/01/24 15:25:30;;;;;;;;;;;8.50;60.00;;;;;;5072090;28;19924;-77
2022/01/24 15:27:57;;;;;;;;;;;8.50;60.30;;;;;;5061106;28;20412;-76
2022/01/24 15:30:25;;;;;;;;;;;8.40;60.80;;;;;;5070317;28;19928;-76
2022/01/24 15:32:58;;;;;;;;;;;8.40;61.50;;;;;;5034510;28;20729;-76
2022/01/24 15:35:25;;;;;;;;;;;8.30;62.20;;;;;;5044973;28;19948;-76
2022/01/24 15:37:52;;;;;;;;;;;8.30;63.00;;;;;;5053690;28;19925;-78
2022/01/24 15:40:20;;;;;;;;;;;8.20;63.90;;;;;;5040262;28;19928;-79
2022/01/24 15:48:40;;;;;;;;;;;7.70;63.60;;;;;;5016951;28;20032;-77
2022/01/24 15:51:11;;;;;;;;;;;7.60;64.20;;;;;;5009925;28;19925;-76
2022/01/24 15:53:44;;;;;;;;;;;7.50;64.40;;;;;;5004557;28;19978;-76
2022/01/24 15:57:39;;;;;;;;;;;7.40;65.30;;;;;;5039557;28;20385;-76
2022/01/24 15:59:03;;;;;;;;;;;7.30;63.50;;;;;;5054648;28;19939;-76
2022/01/24 16:01:30;;;;;;;;;;;7.10;63.50;;;;;;5050968;28;19928;-80
2022/01/24 16:03:57;;;;;;;;;;;6.90;63.80;;;;;;5033154;28;19940;-76
2022/01/24 16:06:24;;;;;;;;;;;6.80;64.30;;;;;;5057980;28;19925;-77
2022/01/24 16:08:53;;;;;;;;;;;6.70;64.70;;;;;;5043308;28;20368;-77
2022/01/24 16:11:20;;;;;;;;;;;6.60;65.20;;;;;;5072016;28;19924;-77
2022/01/24 16:13:48;;;;;;;;;;;6.50;65.40;;;;;;5038135;28;19975;-77
2022/01/24 16:16:16;;;;;;;;;;;6.40;65.30;;;;;;5027681;28;20389;-80
2022/01/24 16:18:44;;;;;;;;;;;6.40;65.80;;;;;;5041399;28;20401;-77
2022/01/24 16:21:39;;;;;;;;;;;6.30;66.20;;;;;;5038000;28;19929;-77
2022/01/24 16:26:43;;;;;;;;;;;6.10;67.20;;;;;;5042115;28;20301;-81
2022/01/24 16:29:10;;;;;;;;;;;5.90;67.50;;;;;;5008109;28;19999;-81
2022/01/24 16:31:38;;;;;;;;;;;5.80;67.80;;;;;;5025002;28;19933;-77
2022/01/24 16:34:05;;;;;;;;;;;5.70;67.90;;;;;;5031823;28;20489;-81
2022/01/24 16:36:34;;;;;;;;;;;5.50;68.00;;;;;;5021746;28;20401;-77
2022/01/24 16:39:04;;;;;;;;;;;5.40;68.20;;;;;;5005159;28;19933;-80
2022/01/24 16:41:38;;;;;;;;;;;5.30;68.20;;;;;;5036885;28;19929;-77
2022/01/24 16:44:39;;;;;;;;;;;5.20;68.20;;;;;;5013676;28;19933;-81
2022/01/24 16:47:27;;;;;;;;;;;5.10;68.40;;;;;;5057234;28;20392;-77
2022/01/24 16:49:54;;;;;;;;;;;5.00;68.30;;;;;;5061856;28;19925;-76